createdAt,value
2019-02-20T00:00:55.523Z,45.30
2019-02-20T00:03:28.018Z,45.20
2019-02-20T00:06:00.177Z,45.20
2019-02-20T00:08:32.096Z,45.30
2019-02-20T00:11:03.772Z,45.30
2019-02-20T00:13:35.595Z,45.30
2019-02-20T00:16:07.288Z,45.30
2019-02-20T00:18:38.970Z,45.50
2019-02-20T00:21:13.946Z,45.50
2019-02-20T00:23:45.671Z,45.40
2019-02-20T00:26:17.478Z,45.60
2019-02-20T00:28:49.505Z,45.60
2019-02-20T00:31:21.523Z,45.70
2019-02-20T00:33:53.752Z,45.70
2019-02-20T00:36:25.396Z,45.80
2019-02-20T00:38:57.099Z,45.80
2019-02-20T00:41:29.002Z,45.80
2019-02-20T00:44:14.564Z,45.90
2019-02-20T00:47:08.235Z,46.00
2019-02-20T00:49:43.465Z,46.00
2019-02-20T00:52:22.111Z,46.10
2019-02-20T00:54:53.982Z,46.10
2019-02-20T00:57:25.623Z,46.20
2019-02-20T00:59:57.678Z,46.20
2019-02-20T01:02:29.347Z,46.30
2019-02-20T01:05:01.430Z,46.40
2019-02-20T01:07:33.253Z,46.40
2019-02-20T01:10:05.344Z,46.50
2019-02-20T01:12:37.008Z,46.40
2019-02-20T01:15:09.657Z,46.40
2019-02-20T01:17:41.337Z,46.40
2019-02-20T01:20:13.402Z,46.50
2019-02-20T01:22:45.169Z,46.60
2019-02-20T01:25:16.909Z,46.50
2019-02-20T01:27:48.801Z,46.50
2019-02-20T01:30:20.440Z,46.60
2019-02-20T01:32:52.111Z,46.40
2019-02-20T01:35:23.878Z,46.60
2019-02-20T01:37:55.558Z,46.60
2019-02-20T01:40:27.261Z,46.70
2019-02-20T01:43:00.251Z,46.70
2019-02-20T01:45:32.014Z,46.80
2019-02-20T01:48:03.681Z,47.40
2019-02-20T01:50:35.646Z,46.80
2019-02-20T01:53:10.377Z,46.80
2019-02-20T01:55:40.710Z,46.80
2019-02-20T01:58:12.391Z,47.40
2019-02-20T02:00:44.093Z,46.80
2019-02-20T02:03:15.766Z,47.40
2019-02-20T02:05:47.411Z,46.80
2019-02-20T02:08:19.199Z,46.80
2019-02-20T02:10:50.881Z,46.80
2019-02-20T02:13:22.575Z,46.90
2019-02-20T02:15:54.288Z,46.80
2019-02-20T02:18:25.907Z,46.90
2019-02-20T02:20:57.732Z,46.80
2019-02-20T02:23:29.325Z,46.80
2019-02-20T02:26:10.662Z,46.50
2019-02-20T02:28:37.950Z,46.80
2019-02-20T02:31:09.601Z,46.90
2019-02-20T02:33:41.304Z,47.00
2019-02-20T02:36:12.941Z,47.00
2019-02-20T02:38:46.222Z,47.10
2019-02-20T02:41:17.915Z,47.10
2019-02-20T02:43:50.390Z,47.10
2019-02-20T02:46:22.329Z,47.10
2019-02-20T02:48:54.029Z,47.10
2019-02-20T02:51:25.782Z,47.10
2019-02-20T02:53:57.974Z,47.10
2019-02-20T02:56:30.142Z,47.10
2019-02-20T02:59:06.855Z,47.80
2019-02-20T03:01:38.481Z,47.40
2019-02-20T03:04:13.172Z,47.30
2019-02-20T03:06:44.943Z,47.30
2019-02-20T03:09:16.567Z,47.30
2019-02-20T03:11:48.421Z,47.40
2019-02-20T03:14:20.088Z,47.40
2019-02-20T03:16:51.762Z,47.40
2019-02-20T03:19:23.438Z,47.40
2019-02-20T03:21:55.116Z,47.70
2019-02-20T03:24:26.812Z,47.50
2019-02-20T03:26:58.539Z,47.60
2019-02-20T03:29:30.579Z,47.60
2019-02-20T03:32:02.256Z,47.60
2019-02-20T03:34:33.906Z,47.60
2019-02-20T03:37:05.588Z,47.70
2019-02-20T03:39:37.268Z,47.70
2019-02-20T03:42:09.368Z,47.70
2019-02-20T03:44:41.045Z,47.80
2019-02-20T03:47:12.671Z,47.70
2019-02-20T03:49:44.349Z,47.80
2019-02-20T03:52:15.998Z,47.80
2019-02-20T03:54:47.673Z,47.80
2019-02-20T03:57:19.518Z,47.90
2019-02-20T03:59:51.203Z,47.90
2019-02-20T04:02:22.888Z,47.80
2019-02-20T04:04:54.725Z,47.90
2019-02-20T04:07:26.382Z,47.80
2019-02-20T04:09:58.054Z,47.70
2019-02-20T04:12:29.723Z,47.60
2019-02-20T04:15:01.385Z,47.60
2019-02-20T04:17:33.050Z,47.50
2019-02-20T04:20:05.856Z,47.50
2019-02-20T04:22:37.503Z,47.50
2019-02-20T04:25:09.154Z,47.60
2019-02-20T04:27:40.845Z,47.50
2019-02-20T04:30:12.535Z,47.50
2019-02-20T04:32:44.220Z,47.80
2019-02-20T04:35:15.970Z,47.80
2019-02-20T04:37:47.647Z,47.80
2019-02-20T04:40:19.398Z,47.80
2019-02-20T04:42:51.329Z,47.90
2019-02-20T04:45:23.014Z,47.90
2019-02-20T04:47:54.729Z,48.00
2019-02-20T04:50:26.438Z,48.00
2019-02-20T04:52:58.099Z,48.10
2019-02-20T04:55:30.912Z,47.90
2019-02-20T04:58:22.714Z,47.70
2019-02-20T05:00:54.348Z,48.00
2019-02-20T05:03:27.343Z,47.80
2019-02-20T05:05:59.020Z,47.80
2019-02-20T05:08:30.705Z,47.80
2019-02-20T05:11:02.430Z,47.70
2019-02-20T05:13:34.141Z,47.60
2019-02-20T05:16:05.888Z,47.60
2019-02-20T05:18:37.576Z,47.60
2019-02-20T05:21:09.392Z,47.80
2019-02-20T05:23:42.767Z,47.70
2019-02-20T05:26:14.482Z,47.80
2019-02-20T05:28:46.161Z,47.80
2019-02-20T05:31:17.891Z,47.80
2019-02-20T05:33:49.646Z,47.90
2019-02-20T05:36:21.333Z,48.00
2019-02-20T05:38:53.009Z,48.10
2019-02-20T05:41:24.705Z,48.00
2019-02-20T05:43:56.402Z,48.00
2019-02-20T05:46:28.194Z,48.00
2019-02-20T05:48:59.876Z,48.00
2019-02-20T05:51:31.659Z,47.90
2019-02-20T05:54:03.439Z,48.10
2019-02-20T05:56:35.079Z,47.90
2019-02-20T05:59:06.849Z,48.00
2019-02-20T06:01:38.571Z,48.10
2019-02-20T06:04:10.278Z,48.20
2019-02-20T06:06:41.996Z,48.20
2019-02-20T06:09:13.707Z,48.30
2019-02-20T06:11:45.383Z,48.40
2019-02-20T06:14:17.125Z,48.50
2019-02-20T06:16:48.787Z,48.20
2019-02-20T06:19:20.420Z,48.80
2019-02-20T06:21:52.086Z,48.30
2019-02-20T06:24:23.755Z,48.40
2019-02-20T06:26:55.431Z,48.30
2019-02-20T06:29:27.219Z,48.40
2019-02-20T06:31:58.941Z,48.50
2019-02-20T06:34:30.587Z,48.60
2019-02-20T06:37:02.401Z,48.60
2019-02-20T06:39:34.072Z,48.60
2019-02-20T06:42:05.733Z,48.60
2019-02-20T06:44:37.469Z,48.70
2019-02-20T06:47:09.196Z,48.70
2019-02-20T06:49:41.059Z,48.70
2019-02-20T06:52:12.978Z,48.80
2019-02-20T06:54:53.625Z,48.80
2019-02-20T06:57:18.203Z,48.80
2019-02-20T06:59:49.866Z,48.60
2019-02-20T07:02:21.569Z,48.70
2019-02-20T07:05:39.077Z,48.80
2019-02-20T07:09:15.264Z,48.90
2019-02-20T07:12:26.057Z,48.70
2019-02-20T07:16:06.240Z,48.60
2019-02-20T07:19:11.442Z,48.70
2019-02-20T07:22:42.266Z,48.50
2019-02-20T07:25:39.817Z,48.60
2019-02-20T07:28:59.909Z,48.70
2019-02-20T07:31:31.625Z,48.70
2019-02-20T07:34:05.425Z,48.80
2019-02-20T07:36:36.814Z,48.90
2019-02-20T07:39:08.828Z,49.20
2019-02-20T07:41:43.438Z,49.10
2019-02-20T07:44:26.360Z,49.20
2019-02-20T07:47:06.386Z,49.20
2019-02-20T07:49:38.097Z,49.20
2019-02-20T07:52:12.684Z,49.30
2019-02-20T07:54:46.179Z,49.20
2019-02-20T07:57:25.830Z,49.30
2019-02-20T08:00:00.324Z,49.20
2019-02-20T08:02:39.092Z,49.30
2019-02-20T08:05:12.945Z,49.50
2019-02-20T08:07:46.853Z,49.30
2019-02-20T08:10:18.611Z,49.40
2019-02-20T08:12:55.520Z,49.50
2019-02-20T08:15:29.568Z,50.40
2019-02-20T08:18:03.374Z,50.20
2019-02-20T08:20:37.140Z,50.10
2019-02-20T08:23:08.499Z,50.00
2019-02-20T08:25:40.175Z,49.00
2019-02-20T08:28:11.966Z,48.80
2019-02-20T08:30:43.685Z,48.60
2019-02-20T08:33:15.527Z,48.50
2019-02-20T08:35:47.219Z,49.10
2019-02-20T08:38:18.931Z,48.50
2019-02-20T08:40:53.501Z,48.30
2019-02-20T08:43:25.252Z,48.40
2019-02-20T08:45:57.017Z,48.30
2019-02-20T08:48:28.716Z,48.40
2019-02-20T08:51:00.618Z,48.30
2019-02-20T08:53:33.661Z,48.10
2019-02-20T08:56:05.464Z,48.40
2019-02-20T08:58:37.203Z,48.40
2019-02-20T09:01:08.877Z,48.30
2019-02-20T09:03:40.842Z,48.40
2019-02-20T09:06:12.560Z,48.40
2019-02-20T09:08:45.611Z,48.30
2019-02-20T09:11:17.327Z,48.20
2019-02-20T09:13:49.030Z,48.20
2019-02-20T09:16:20.672Z,48.20
2019-02-20T09:18:52.472Z,48.10
2019-02-20T09:21:24.227Z,48.00
2019-02-20T09:24:00.147Z,48.00
2019-02-20T09:26:31.852Z,48.00
2019-02-20T09:29:03.677Z,47.90
2019-02-20T09:31:38.187Z,47.90
2019-02-20T09:34:10.193Z,47.80
2019-02-20T09:36:41.917Z,48.20
2019-02-20T09:39:51.491Z,47.90
2019-02-20T09:42:23.691Z,48.00
2019-02-20T09:44:58.381Z,47.90
2019-02-20T09:47:33.924Z,47.90
2019-02-20T09:50:05.952Z,48.00
2019-02-20T09:52:39.309Z,47.90
2019-02-20T09:55:13.693Z,47.90
2019-02-20T09:57:45.385Z,47.30
2019-02-20T10:00:19.315Z,47.60
2019-02-20T10:02:51.026Z,47.60
2019-02-20T10:05:26.072Z,47.60
2019-02-20T10:07:57.894Z,47.50
2019-02-20T10:10:29.776Z,47.50
2019-02-20T10:13:01.525Z,47.50
2019-02-20T10:15:35.501Z,47.50
2019-02-20T10:18:07.725Z,47.50
2019-02-20T10:20:40.788Z,47.50
2019-02-20T10:23:14.112Z,47.90
2019-02-20T10:25:47.057Z,48.10
2019-02-20T10:28:18.710Z,48.20
2019-02-20T10:30:51.949Z,48.00
2019-02-20T10:33:23.890Z,47.50
2019-02-20T10:35:55.702Z,47.40
2019-02-20T10:38:27.463Z,47.10
2019-02-20T10:40:59.278Z,46.70
2019-02-20T10:43:30.987Z,46.60
2019-02-20T10:46:05.958Z,46.50
2019-02-20T10:48:38.191Z,46.80
2019-02-20T10:51:10.001Z,47.30
2019-02-20T10:53:41.723Z,47.60
2019-02-20T10:59:26.801Z,47.60
2019-02-20T11:01:58.581Z,43.60
2019-02-20T11:04:30.927Z,45.10
2019-02-20T11:07:02.662Z,45.10
2019-02-20T11:09:34.493Z,44.60
2019-02-20T11:12:06.280Z,44.20
2019-02-20T11:14:38.108Z,43.90
2019-02-20T11:17:10.107Z,43.60
2019-02-20T11:19:41.817Z,43.70
2019-02-20T11:22:17.533Z,43.60
2019-02-20T11:24:49.455Z,43.40
2019-02-20T11:27:22.534Z,43.30
2019-02-20T11:29:54.413Z,43.00
2019-02-20T11:32:28.097Z,43.00
2019-02-20T11:35:00.018Z,43.10
2019-02-20T11:37:34.783Z,43.30
2019-02-20T11:40:07.905Z,43.40
2019-02-20T11:42:39.638Z,43.20
2019-02-20T11:45:11.607Z,43.00
2019-02-20T11:47:45.671Z,42.40
2019-02-20T11:50:17.481Z,42.50
2019-02-20T11:52:49.253Z,42.30
2019-02-20T11:55:21.679Z,42.50
2019-02-20T11:58:00.481Z,42.80
2019-02-20T12:00:26.986Z,42.90
2019-02-20T12:02:58.815Z,42.70
2019-02-20T12:05:30.742Z,42.50
2019-02-20T12:08:02.491Z,42.40
2019-02-20T12:10:36.607Z,42.40
2019-02-20T12:13:08.782Z,42.30
2019-02-20T12:15:40.737Z,42.00
2019-02-20T12:18:17.390Z,41.70
2019-02-20T12:20:46.448Z,41.60
2019-02-20T12:23:18.400Z,41.60
2019-02-20T12:25:50.111Z,41.70
2019-02-20T12:28:22.195Z,41.70
2019-02-20T12:30:54.079Z,41.90
2019-02-20T12:33:26.189Z,42.20
2019-02-20T12:35:58.026Z,42.50
2019-02-20T12:38:29.879Z,42.90
2019-02-20T12:41:01.739Z,42.60
2019-02-20T12:43:33.463Z,42.30
2019-02-20T12:46:05.235Z,41.80
2019-02-20T12:48:36.945Z,41.40
2019-02-20T12:51:08.661Z,41.60
2019-02-20T12:53:40.381Z,40.60
2019-02-20T12:56:12.128Z,40.40
2019-02-20T12:58:44.002Z,40.50
2019-02-20T13:01:15.690Z,40.80
2019-02-20T13:03:47.557Z,40.30
2019-02-20T13:06:19.257Z,40.30
2019-02-20T13:08:51.227Z,40.30
2019-02-20T13:11:23.051Z,40.50
2019-02-20T13:13:56.864Z,40.60
2019-02-20T13:16:33.441Z,40.50
2019-02-20T13:19:05.305Z,40.30
2019-02-20T13:21:37.149Z,40.40
2019-02-20T13:24:09.159Z,40.20
2019-02-20T13:26:40.979Z,39.80
2019-02-20T13:32:09.387Z,40.00
2019-02-20T13:34:46.242Z,40.00
2019-02-20T13:37:17.994Z,39.60
2019-02-20T13:39:49.912Z,39.50
2019-02-20T13:42:23.346Z,39.30
2019-02-20T13:44:55.175Z,39.10
2019-02-20T13:47:27.006Z,38.90
2019-02-20T13:49:58.687Z,38.80
2019-02-20T13:52:30.701Z,38.70
2019-02-20T13:55:03.097Z,38.70
2019-02-20T13:57:36.774Z,38.70
2019-02-20T14:00:09.815Z,38.90
2019-02-20T14:02:41.628Z,39.00
2019-02-20T14:05:13.340Z,39.10
2019-02-20T14:07:45.617Z,39.00
2019-02-20T14:10:17.352Z,38.80
2019-02-20T14:12:49.079Z,38.80
2019-02-20T14:15:20.838Z,39.00
2019-02-20T14:17:52.826Z,38.90
2019-02-20T14:20:24.908Z,38.80
2019-02-20T14:22:56.826Z,38.40
2019-02-20T14:25:28.765Z,38.20
2019-02-20T14:28:00.704Z,38.00
2019-02-20T14:30:32.490Z,37.90
2019-02-20T14:33:04.502Z,37.90
2019-02-20T14:35:36.445Z,38.00
2019-02-20T14:38:08.255Z,38.10
2019-02-20T14:40:40.115Z,38.00
2019-02-20T14:43:12.898Z,38.10
2019-02-20T14:45:44.983Z,38.00
2019-02-20T14:48:16.856Z,38.10
2019-02-20T14:50:48.669Z,38.10
2019-02-20T14:53:20.443Z,38.60
2019-02-20T14:55:52.479Z,38.00
2019-02-20T14:58:24.628Z,37.90
2019-02-20T15:00:56.501Z,37.80
2019-02-20T15:03:28.448Z,37.80
2019-02-20T15:06:00.358Z,37.80
2019-02-20T15:08:32.339Z,37.90
2019-02-20T15:11:04.443Z,37.90
2019-02-20T15:13:36.214Z,37.70
2019-02-20T15:16:07.991Z,37.60
2019-02-20T15:18:39.716Z,37.60
2019-02-20T15:21:11.483Z,37.60
2019-02-20T15:23:43.120Z,37.70
2019-02-20T15:26:14.861Z,37.90
2019-02-20T15:28:46.799Z,38.40
2019-02-20T15:31:18.867Z,38.00
2019-02-20T15:33:50.571Z,38.30
2019-02-20T15:36:22.480Z,38.20
2019-02-20T15:38:54.366Z,38.40
2019-02-20T15:41:26.171Z,38.20
2019-02-20T15:43:58.013Z,38.20
2019-02-20T15:46:29.945Z,38.40
2019-02-20T15:49:02.120Z,38.30
2019-02-20T15:51:33.947Z,38.40
2019-02-20T15:54:05.806Z,38.50
2019-02-20T15:56:37.547Z,38.50
2019-02-20T15:59:09.653Z,38.50
2019-02-20T16:01:41.452Z,38.60
2019-02-20T16:04:13.198Z,38.60
2019-02-20T16:06:45.084Z,38.60
2019-02-20T16:09:16.773Z,38.50
2019-02-20T16:11:48.651Z,38.60
2019-02-20T16:14:20.622Z,38.60
2019-02-20T16:16:52.863Z,38.70
2019-02-20T16:19:24.567Z,38.80
2019-02-20T16:21:56.274Z,38.90
2019-02-20T16:24:36.832Z,38.80
2019-02-20T16:27:13.203Z,38.80
2019-02-20T16:29:48.422Z,38.80
2019-02-20T16:32:23.847Z,38.80
2019-02-20T16:34:55.576Z,38.70
2019-02-20T16:37:27.440Z,38.70
2019-02-20T16:40:02.484Z,38.50
2019-02-20T16:42:34.346Z,38.50
2019-02-20T16:45:19.818Z,38.40
2019-02-20T16:47:56.024Z,38.50
2019-02-20T16:50:28.072Z,38.50
2019-02-20T16:52:59.848Z,38.40
2019-02-20T16:55:33.029Z,38.40
2019-02-20T16:58:06.832Z,38.50
2019-02-20T17:00:41.796Z,38.50
2019-02-20T17:03:13.454Z,38.50
2019-02-20T17:05:45.440Z,38.50
2019-02-20T17:08:19.778Z,38.80
2019-02-20T17:10:51.629Z,38.70
2019-02-20T17:13:26.046Z,38.60
2019-02-20T17:15:57.748Z,38.80
2019-02-20T17:18:31.806Z,38.80
2019-02-20T17:21:06.487Z,38.90
2019-02-20T17:23:43.098Z,39.00
2019-02-20T17:26:14.956Z,39.20
2019-02-20T17:28:48.732Z,39.20
2019-02-20T17:31:20.714Z,38.90
2019-02-20T17:33:52.622Z,39.30
2019-02-20T17:36:24.372Z,39.40
2019-02-20T17:38:56.260Z,39.50
2019-02-20T17:41:28.193Z,39.60
2019-02-20T17:44:00.429Z,39.50
2019-02-20T17:46:32.217Z,38.70
2019-02-20T17:49:04.116Z,39.60
2019-02-20T17:51:41.511Z,39.70
2019-02-20T17:54:13.732Z,39.80
2019-02-20T17:56:49.313Z,39.80
2019-02-20T17:59:21.279Z,39.90
2019-02-20T18:01:53.151Z,40.00
2019-02-20T18:04:25.157Z,40.00
2019-02-20T18:06:56.915Z,40.00
2019-02-20T18:09:29.462Z,40.10
2019-02-20T18:12:02.634Z,40.00
2019-02-20T18:14:35.854Z,40.10
2019-02-20T18:17:10.895Z,40.10
2019-02-20T18:19:43.485Z,40.10
2019-02-20T18:22:17.411Z,40.30
2019-02-20T18:25:09.834Z,40.30
2019-02-20T18:27:41.876Z,40.10
2019-02-20T18:30:14.146Z,40.30
2019-02-20T18:32:46.068Z,40.50
2019-02-20T18:35:20.009Z,40.60
2019-02-20T18:37:51.811Z,40.50
2019-02-20T18:40:23.800Z,40.50
2019-02-20T18:42:55.670Z,40.60
2019-02-20T18:45:27.829Z,40.70
2019-02-20T18:47:59.768Z,40.80
2019-02-20T18:50:57.399Z,39.90
2019-02-20T18:53:24.173Z,40.90
2019-02-20T18:55:57.710Z,40.70
2019-02-20T18:58:33.958Z,40.80
2019-02-20T19:01:06.150Z,41.20
2019-02-20T19:03:38.244Z,40.80
2019-02-20T19:06:10.256Z,41.00
2019-02-20T19:08:49.162Z,41.00
2019-02-20T19:11:51.247Z,41.00
2019-02-20T19:15:16.479Z,41.00
2019-02-20T19:19:02.078Z,41.10
2019-02-20T19:22:21.114Z,41.20
2019-02-20T19:26:14.413Z,41.10
2019-02-20T19:29:27.411Z,41.00
2019-02-20T19:32:58.007Z,41.10
2019-02-20T19:36:12.790Z,41.20
2019-02-20T19:39:37.571Z,41.20
2019-02-20T19:43:15.619Z,41.40
2019-02-20T19:46:32.288Z,41.50
2019-02-20T19:50:09.975Z,41.80
2019-02-20T19:53:47.738Z,41.50
2019-02-20T19:57:10.189Z,41.40
2019-02-20T20:00:25.924Z,42.30
2019-02-20T20:03:43.939Z,41.60
2019-02-20T20:07:20.684Z,41.60
2019-02-20T20:11:07.413Z,41.70
2019-02-20T20:14:29.294Z,41.70
2019-02-20T20:18:07.393Z,41.90
2019-02-20T20:21:42.594Z,41.50
2019-02-20T20:24:51.360Z,42.00
2019-02-20T20:28:25.584Z,42.10
2019-02-20T20:31:43.026Z,42.10
2019-02-20T20:35:19.531Z,42.20
2019-02-20T20:38:51.999Z,42.20
2019-02-20T20:42:18.104Z,42.20
2019-02-20T20:45:55.528Z,42.20
2019-02-20T20:49:32.957Z,42.40
2019-02-20T20:53:08.919Z,42.30
2019-02-20T20:57:05.358Z,42.50
2019-02-20T21:00:20.690Z,42.50
2019-02-20T21:02:59.649Z,42.50
2019-02-20T21:06:46.933Z,42.70
2019-02-20T21:10:36.131Z,42.80
2019-02-20T21:13:57.555Z,43.30
2019-02-20T21:17:41.269Z,42.80
2019-02-20T21:20:49.413Z,42.90
2019-02-20T21:24:23.115Z,43.00
2019-02-20T21:27:52.146Z,43.00
2019-02-20T21:31:11.039Z,43.00
2019-02-20T21:34:54.619Z,43.00
2019-02-20T21:38:43.465Z,43.10
2019-02-20T21:41:47.053Z,43.00
2019-02-20T21:44:57.724Z,43.20
2019-02-20T21:48:16.871Z,43.30
2019-02-20T21:51:36.879Z,43.40
2019-02-20T21:54:56.880Z,43.30
2019-02-20T21:58:10.235Z,43.30
2019-02-20T22:01:10.801Z,43.40
2019-02-20T22:04:13.631Z,43.60
2019-02-20T22:07:44.016Z,43.70
2019-02-20T22:10:52.172Z,43.60
2019-02-20T22:14:05.201Z,43.70
2019-02-20T22:17:47.260Z,43.80
2019-02-20T22:21:22.871Z,43.90
2019-02-20T22:24:39.761Z,43.80
2019-02-20T22:28:10.152Z,43.80
2019-02-20T22:31:45.164Z,43.80
2019-02-20T22:35:12.257Z,43.90
2019-02-20T22:38:32.234Z,44.00
2019-02-20T22:41:58.261Z,44.10
2019-02-20T22:45:13.007Z,44.10
2019-02-20T22:48:18.229Z,44.20
2019-02-20T22:51:38.825Z,44.20
2019-02-20T22:55:07.182Z,44.30
2019-02-20T22:58:31.887Z,44.40
2019-02-20T23:02:24.940Z,44.40
2019-02-20T23:06:05.962Z,44.50
2019-02-20T23:09:27.269Z,44.40
2019-02-20T23:12:15.647Z,44.30
2019-02-20T23:14:56.694Z,44.50
2019-02-20T23:17:28.926Z,44.70
2019-02-20T23:20:00.676Z,44.80
2019-02-20T23:22:32.911Z,45.00
2019-02-20T23:25:05.246Z,45.10
2019-02-20T23:27:38.150Z,45.10
2019-02-20T23:30:13.057Z,45.10
2019-02-20T23:32:45.211Z,45.10
2019-02-20T23:35:17.347Z,45.20
2019-02-20T23:37:49.187Z,45.30
2019-02-20T23:40:20.897Z,45.40
2019-02-20T23:42:52.646Z,45.50
2019-02-20T23:45:24.380Z,45.50
2019-02-20T23:47:56.093Z,45.80
2019-02-20T23:50:27.880Z,45.50
2019-02-20T23:52:59.605Z,45.60
2019-02-20T23:55:31.654Z,45.60
2019-02-20T23:58:03.496Z,45.70
